createdAt,value
2023-02-14T00:01:13.107Z,1.20
2023-02-14T00:06:16.254Z,1.16
2023-02-14T00:11:19.881Z,1.08
2023-02-14T00:16:22.915Z,1.01
2023-02-14T00:21:25.894Z,0.96
2023-02-14T00:26:29.000Z,0.93
2023-02-14T00:31:32.176Z,0.90
2023-02-14T00:36:35.729Z,0.89
2023-02-14T00:41:40.044Z,0.87
2023-02-14T00:46:43.088Z,0.82
2023-02-14T00:51:46.280Z,0.75
2023-02-14T00:56:49.394Z,0.70
2023-02-14T01:01:52.396Z,0.69
2023-02-14T01:06:55.405Z,0.67
2023-02-14T01:11:58.410Z,0.64
2023-02-14T01:17:01.415Z,0.63
2023-02-14T01:22:04.524Z,0.64
2023-02-14T01:27:07.532Z,0.66
2023-02-14T01:32:10.541Z,0.69
2023-02-14T01:37:14.332Z,0.73
2023-02-14T01:42:17.269Z,0.78
2023-02-14T01:47:20.584Z,0.80
2023-02-14T01:52:33.215Z,0.81
2023-02-14T01:57:42.446Z,0.80
2023-02-14T02:02:46.057Z,0.76
2023-02-14T02:07:49.402Z,0.71
2023-02-14T02:12:54.166Z,0.71
2023-02-14T02:18:03.717Z,0.67
2023-02-14T02:23:31.061Z,0.61
2023-02-14T02:28:37.073Z,0.56
2023-02-14T02:33:46.320Z,0.51
2023-02-14T02:39:12.160Z,0.43
2023-02-14T02:44:26.942Z,0.39
2023-02-14T02:50:30.264Z,0.41
2023-02-14T02:56:09.215Z,0.56
2023-02-14T03:01:19.688Z,0.73
2023-02-14T03:06:22.600Z,0.91
2023-02-14T03:11:26.307Z,1.04
2023-02-14T03:16:41.308Z,1.11
2023-02-14T03:21:57.844Z,1.20
2023-02-14T03:27:25.828Z,1.27
2023-02-14T03:32:56.768Z,1.34
2023-02-14T03:38:11.608Z,1.39
2023-02-14T03:43:21.234Z,1.44
2023-02-14T03:48:27.523Z,1.50
2023-02-14T03:53:35.135Z,1.53
2023-02-14T03:58:41.414Z,1.58
2023-02-14T04:03:45.612Z,1.63
2023-02-14T04:08:48.657Z,1.66
2023-02-14T04:13:51.865Z,1.70
2023-02-14T04:19:13.713Z,1.74
2023-02-14T04:24:17.029Z,1.78
2023-02-14T04:29:21.441Z,1.79
2023-02-14T04:34:24.574Z,1.81
2023-02-14T04:39:27.988Z,1.86
2023-02-14T04:44:31.305Z,1.89
2023-02-14T04:49:35.138Z,1.91
2023-02-14T04:54:38.137Z,1.93
2023-02-14T04:59:41.140Z,1.94
2023-02-14T05:04:44.352Z,1.93
2023-02-14T05:09:47.358Z,1.93
2023-02-14T05:14:50.568Z,1.96
2023-02-14T05:19:53.581Z,1.98
2023-02-14T05:24:56.680Z,2.01
2023-02-14T05:29:59.720Z,2.04
2023-02-14T05:35:02.795Z,2.05
2023-02-14T05:40:08.660Z,2.05
2023-02-14T05:45:12.803Z,2.07
2023-02-14T05:50:16.589Z,2.07
2023-02-14T05:55:19.739Z,2.07
2023-02-14T06:00:24.503Z,2.09
2023-02-14T06:05:27.495Z,2.10
2023-02-14T06:10:30.811Z,2.11
2023-02-14T06:15:34.032Z,2.13
2023-02-14T06:20:37.336Z,2.18
2023-02-14T06:25:40.602Z,2.21
2023-02-14T06:30:44.070Z,2.23
2023-02-14T06:35:47.123Z,2.28
2023-02-14T06:40:50.183Z,2.33
2023-02-14T06:45:53.429Z,2.35
2023-02-14T06:50:57.532Z,2.40
2023-02-14T06:56:01.255Z,2.45
2023-02-14T07:01:04.547Z,2.48
2023-02-14T07:06:07.777Z,2.50
2023-02-14T07:11:11.086Z,2.52
2023-02-14T07:16:14.137Z,2.55
2023-02-14T07:21:17.210Z,2.56
2023-02-14T07:26:20.418Z,2.58
2023-02-14T07:31:23.784Z,2.62
2023-02-14T07:36:27.375Z,2.66
2023-02-14T07:41:30.457Z,2.68
2023-02-14T07:46:33.727Z,2.70
2023-02-14T07:51:37.017Z,2.76
2023-02-14T07:56:40.092Z,2.80
2023-02-14T08:01:43.521Z,2.85
2023-02-14T08:06:46.817Z,2.90
2023-02-14T08:12:09.588Z,2.95
2023-02-14T08:17:14.022Z,3.00
2023-02-14T08:22:18.576Z,3.06
2023-02-14T08:27:21.677Z,3.11
2023-02-14T08:32:24.953Z,3.19
2023-02-14T08:37:28.094Z,3.23
2023-02-14T08:42:31.411Z,3.27
2023-02-14T08:47:36.062Z,3.32
2023-02-14T08:52:46.025Z,3.37
2023-02-14T08:57:49.550Z,3.40
2023-02-14T09:02:53.571Z,3.44
2023-02-14T09:07:57.460Z,3.47
2023-02-14T09:13:00.503Z,3.51
2023-02-14T09:18:03.715Z,3.58
2023-02-14T09:23:06.931Z,3.66
2023-02-14T09:28:09.935Z,3.72
2023-02-14T09:33:12.939Z,3.74
2023-02-14T09:38:16.157Z,3.76
2023-02-14T09:43:39.440Z,3.91
2023-02-14T09:48:47.301Z,4.08
2023-02-14T09:53:57.220Z,4.13
2023-02-14T09:59:23.985Z,4.24
2023-02-14T10:04:33.140Z,4.33
2023-02-14T10:10:04.002Z,4.49
2023-02-14T10:15:22.271Z,4.67
2023-02-14T10:20:47.754Z,4.83
2023-02-14T10:26:01.459Z,5.04
2023-02-14T10:31:23.148Z,5.22
2023-02-14T10:36:32.144Z,5.31
2023-02-14T10:41:54.817Z,5.36
2023-02-14T10:47:03.559Z,5.50
2023-02-14T10:52:18.237Z,5.61
2023-02-14T10:57:21.345Z,5.60
2023-02-14T11:02:30.288Z,5.65
2023-02-14T11:07:33.605Z,5.75
2023-02-14T11:12:39.630Z,5.79
2023-02-14T11:17:43.095Z,5.82
2023-02-14T11:22:46.618Z,5.83
2023-02-14T11:28:17.042Z,6.00
2023-02-14T11:33:31.029Z,6.21
2023-02-14T11:38:38.330Z,6.27
2023-02-14T11:43:43.796Z,6.39
2023-02-14T11:48:57.862Z,6.46
2023-02-14T11:54:04.977Z,6.41
2023-02-14T11:59:08.175Z,6.39
2023-02-14T12:04:45.710Z,6.47
2023-02-14T12:10:16.249Z,6.36
2023-02-14T12:15:59.718Z,6.11
2023-02-14T12:21:32.077Z,6.10
2023-02-14T12:27:03.162Z,6.09
2023-02-14T12:32:19.891Z,6.16
2023-02-14T12:38:06.112Z,6.23
2023-02-14T12:43:27.693Z,6.24
2023-02-14T12:48:49.496Z,6.15
2023-02-14T12:54:19.332Z,6.12
2023-02-14T12:59:40.893Z,6.21
2023-02-14T13:04:53.402Z,6.31
2023-02-14T13:10:05.952Z,6.24
2023-02-14T13:15:19.695Z,6.19
2023-02-14T13:20:31.066Z,6.10
2023-02-14T13:25:42.039Z,6.05
2023-02-14T13:30:45.208Z,6.08
2023-02-14T13:35:49.397Z,6.03
2023-02-14T13:40:55.404Z,6.03
2023-02-14T13:45:58.510Z,6.03
2023-02-14T13:51:10.138Z,5.98
2023-02-14T13:56:13.336Z,5.98
2023-02-14T14:01:42.484Z,5.97
2023-02-14T14:07:04.035Z,5.93
2023-02-14T14:12:26.975Z,5.86
2023-02-14T14:17:29.972Z,5.80
2023-02-14T14:22:55.729Z,5.77
2023-02-14T14:28:00.507Z,5.73
2023-02-14T14:33:24.265Z,5.68
2023-02-14T14:38:28.160Z,5.62
2023-02-14T14:43:34.879Z,5.59
2023-02-14T14:48:47.177Z,5.53
2023-02-14T14:53:58.533Z,5.42
2023-02-14T14:59:28.154Z,5.37
2023-02-14T15:04:35.912Z,5.35
2023-02-14T15:09:42.784Z,5.30
2023-02-14T15:14:54.558Z,5.19
2023-02-14T15:20:21.293Z,5.07
2023-02-14T15:25:33.040Z,4.90
2023-02-14T15:30:38.130Z,4.74
2023-02-14T15:35:42.524Z,4.58
2023-02-14T15:40:46.068Z,4.44
2023-02-14T15:45:53.433Z,4.28
2023-02-14T15:50:59.830Z,4.09
2023-02-14T15:56:25.413Z,3.93
2023-02-14T16:01:30.233Z,3.78
2023-02-14T16:06:37.135Z,3.62
2023-02-14T16:11:40.257Z,3.49
2023-02-14T16:17:13.550Z,3.43
2023-02-14T16:22:32.222Z,3.45
2023-02-14T16:27:35.127Z,3.52
2023-02-14T16:32:38.423Z,3.54
2023-02-14T16:37:41.861Z,3.52
2023-02-14T16:42:44.970Z,3.47
2023-02-14T16:47:49.325Z,3.39
2023-02-14T16:52:53.734Z,3.29
2023-02-14T16:57:59.740Z,3.22
2023-02-14T17:03:11.448Z,3.20
2023-02-14T17:08:15.963Z,3.15
2023-02-14T17:13:23.201Z,3.07
2023-02-14T17:18:26.294Z,2.95
2023-02-14T17:23:29.293Z,2.81
2023-02-14T17:28:32.405Z,2.63
2023-02-14T17:33:35.784Z,2.47
2023-02-14T17:38:39.642Z,2.32
2023-02-14T17:43:43.410Z,2.17
2023-02-14T17:48:48.109Z,2.07
2023-02-14T17:53:51.535Z,2.03
2023-02-14T17:58:55.400Z,2.04
2023-02-14T18:03:58.365Z,2.04
2023-02-14T18:09:05.707Z,2.06
2023-02-14T18:14:09.292Z,2.13
2023-02-14T18:19:15.924Z,2.22
2023-02-14T18:24:20.175Z,2.26
2023-02-14T18:29:23.432Z,2.29
2023-02-14T18:34:26.764Z,2.36
2023-02-14T18:39:29.849Z,2.47
2023-02-14T18:44:33.703Z,2.63
2023-02-14T18:49:36.995Z,2.69
2023-02-14T18:54:40.215Z,2.69
2023-02-14T18:59:43.320Z,2.70
2023-02-14T19:04:46.750Z,2.75
2023-02-14T19:09:49.744Z,2.79
2023-02-14T19:14:54.339Z,2.80
2023-02-14T19:19:57.590Z,2.85
2023-02-14T19:25:00.621Z,2.94
2023-02-14T19:30:04.107Z,3.00
2023-02-14T19:35:07.807Z,3.04
2023-02-14T19:40:12.489Z,3.04
2023-02-14T19:45:15.603Z,3.05
2023-02-14T19:50:20.389Z,3.04
2023-02-14T19:55:25.090Z,3.02
2023-02-14T20:00:28.305Z,3.02
2023-02-14T20:05:31.930Z,3.01
2023-02-14T20:10:34.944Z,3.02
2023-02-14T20:15:40.064Z,3.03
2023-02-14T20:21:02.871Z,3.03
2023-02-14T20:26:12.406Z,3.04
2023-02-14T20:31:19.164Z,3.05
2023-02-14T20:36:22.597Z,3.05
2023-02-14T20:41:27.687Z,3.05
2023-02-14T20:46:30.744Z,3.05
2023-02-14T20:51:35.109Z,3.05
2023-02-14T20:56:40.380Z,3.01
2023-02-14T21:01:43.529Z,2.98
2023-02-14T21:06:49.174Z,2.95
2023-02-14T21:11:54.133Z,2.94
2023-02-14T21:16:57.428Z,2.92
2023-02-14T21:22:00.545Z,2.91
2023-02-14T21:27:03.663Z,2.88
2023-02-14T21:32:06.860Z,2.84
2023-02-14T21:37:10.068Z,2.80
2023-02-14T21:42:13.183Z,2.84
2023-02-14T21:47:16.186Z,2.95
2023-02-14T21:52:19.092Z,2.98
2023-02-14T21:57:22.408Z,2.98
2023-02-14T22:02:25.443Z,2.95
2023-02-14T22:07:29.288Z,2.97
2023-02-14T22:12:32.238Z,3.02
2023-02-14T22:17:35.862Z,3.02
2023-02-14T22:22:38.997Z,3.01
2023-02-14T22:27:42.106Z,3.03
2023-02-14T22:32:45.082Z,2.95
2023-02-14T22:37:48.093Z,2.91
2023-02-14T22:42:50.988Z,2.97
2023-02-14T22:47:53.998Z,2.98
2023-02-14T22:52:57.101Z,3.04
2023-02-14T22:58:01.448Z,3.05
2023-02-14T23:03:04.573Z,3.02
2023-02-14T23:08:07.658Z,2.98
2023-02-14T23:13:29.594Z,2.96
2023-02-14T23:18:51.252Z,2.92
2023-02-14T23:23:54.127Z,2.93
2023-02-14T23:28:57.122Z,2.95
2023-02-14T23:34:00.256Z,2.94
2023-02-14T23:39:03.285Z,2.95
2023-02-14T23:44:06.292Z,2.94
2023-02-14T23:49:09.930Z,2.90
2023-02-14T23:54:13.992Z,2.89
2023-02-14T23:59:17.060Z,2.93
